Time;durP1;ratioP1;P1;durP2;ratioP2;P2;SDS_P1;SDS_P2;PMS_P1;PMS_P2;Temp;Humidity;BMP_temperature;BMP_pressure;BME280_temperature;BME280_humidity;BME280_pressure;Samples;Min_cycle;Max_cycle;Signal;HPM_P1;HPM_P2
2023/04/29 00:01:02;;;;;;;12.90;6.20;;;;;;;-145.69;100.00;52503.81;5095382;28;20198;-79
2023/04/29 00:03:31;;;;;;;10.97;6.13;;;;;;;-145.69;100.00;52503.81;5094418;28;20234;-79
2023/04/29 00:05:57;;;;;;;11.60;5.43;;;;;;;-145.69;100.00;52495.88;5095609;28;20202;-79
2023/04/29 00:08:24;;;;;;;9.00;5.10;;;;;;;-145.69;100.00;52539.44;5095244;28;20222;-79
2023/04/29 00:10:51;;;;;;;12.50;5.97;;;;;;;-145.69;100.00;52501.81;5095661;28;20266;-79
2023/04/29 00:13:17;;;;;;;15.90;6.47;;;;;;;-145.69;100.00;52484.00;5095420;28;20203;-79
2023/04/29 00:15:45;;;;;;;9.33;5.10;;;;;;;-145.69;100.00;52468.16;5095198;28;20671;-79
2023/04/29 00:18:12;;;;;;;8.90;4.97;;;;;;;-145.69;100.00;52511.72;5095341;28;20679;-79
2023/04/29 00:20:39;;;;;;;8.63;3.93;;;;;;;-145.69;100.00;52503.81;5094947;28;20223;-79
2023/04/29 00:23:09;;;;;;;10.60;4.90;;;;;;;-145.69;100.00;52507.75;5095142;28;20198;-79
2023/04/29 00:25:37;;;;;;;8.93;4.40;;;;;;;-145.69;100.00;52499.84;5089673;28;20202;-79
2023/04/29 00:28:04;;;;;;;10.33;5.23;;;;;;;-145.69;100.00;52497.84;5074760;28;20303;-79
2023/04/29 00:30:31;;;;;;;10.57;5.27;;;;;;;-145.69;100.00;52505.78;5080526;28;20200;-80
2023/04/29 00:32:59;;;;;;;11.17;5.03;;;;;;;-145.69;100.00;52484.00;5095084;28;20198;-79
2023/04/29 00:35:26;;;;;;;11.80;6.40;;;;;;;-145.69;100.00;52480.03;5094724;28;20225;-79
2023/04/29 00:37:52;;;;;;;14.97;4.67;;;;;;;-145.69;100.00;52517.66;5094962;28;20537;-79
2023/04/29 00:40:19;;;;;;;12.57;4.90;;;;;;;-145.69;100.00;52499.84;5094549;28;20561;-79
2023/04/29 00:42:48;;;;;;;12.70;5.27;;;;;;;-145.69;100.00;52531.53;5094825;28;20669;-79
2023/04/29 00:45:14;;;;;;;8.70;4.90;;;;;;;-145.69;100.00;52525.59;5094624;28;20702;-80
2023/04/29 00:47:41;;;;;;;9.97;5.27;;;;;;;-145.69;100.00;52503.81;5094683;28;20815;-79
2023/04/29 00:50:09;;;;;;;12.27;4.93;;;;;;;-145.69;100.00;52503.81;5094048;28;20190;-80
2023/04/29 00:52:39;;;;;;;9.63;4.90;;;;;;;-145.69;100.00;52519.63;5094584;28;20202;-80
2023/04/29 00:55:08;;;;;;;12.50;6.27;;;;;;;-145.69;100.00;52533.50;5094440;28;20198;-80
2023/04/29 00:57:35;;;;;;;12.07;5.80;;;;;;;-145.69;100.00;52519.63;5094694;28;20198;-80
2023/04/29 01:00:02;;;;;;;21.47;7.60;;;;;;;-145.69;100.00;52517.66;5094225;28;20281;-80
2023/04/29 01:02:30;;;;;;;15.33;6.63;;;;;;;-145.69;100.00;52480.03;5094097;28;20202;-79
2023/04/29 01:04:57;;;;;;;12.60;6.30;;;;;;;-145.69;100.00;52497.84;5094006;28;20230;-80
2023/04/29 01:07:33;;;;;;;12.37;7.13;;;;;;;-145.69;100.00;52503.81;5094439;28;20225;-80
2023/04/29 01:10:09;;;;;;;13.17;6.77;;;;;;;-145.69;100.00;52511.72;5094077;28;20204;-80
2023/04/29 01:12:45;;;;;;;17.47;7.90;;;;;;;-145.69;100.00;52525.59;5093910;28;20204;-80
2023/04/29 01:15:20;;;;;;;12.80;7.70;;;;;;;-145.69;100.00;52505.78;5094282;28;20201;-79
2023/04/29 01:17:51;;;;;;;17.73;8.83;;;;;;;-145.69;100.00;52525.59;5093760;28;20189;-79
2023/04/29 01:20:19;;;;;;;19.20;8.97;;;;;;;-145.69;100.00;52501.81;5093415;28;20209;-80
2023/04/29 01:22:48;;;;;;;22.33;9.87;;;;;;;-145.69;100.00;52491.91;5073754;28;20207;-79
2023/04/29 01:25:16;;;;;;;17.13;8.33;;;;;;;-145.69;100.00;52507.75;5073652;28;20206;-79
2023/04/29 01:27:52;;;;;;;23.03;9.10;;;;;;;-145.69;100.00;52523.59;5079819;28;20236;-79
2023/04/29 01:30:31;;;;;;;19.50;8.93;;;;;;;-145.69;100.00;52533.50;5093369;28;20244;-79
2023/04/29 01:33:05;;;;;;;19.37;7.70;;;;;;;-145.69;100.00;52517.66;5093865;28;20205;-79
2023/04/29 01:35:46;;;;;;;16.47;7.23;;;;;;;-145.69;100.00;52523.59;5093828;28;20197;-79
2023/04/29 01:38:22;;;;;;;13.50;7.13;;;;;;;-145.69;100.00;52527.56;5093499;28;20640;-79
2023/04/29 01:40:59;;;;;;;14.97;6.20;;;;;;;-145.69;100.00;52541.44;5093707;28;20221;-79
2023/04/29 01:43:30;;;;;;;14.93;6.27;;;;;;;-145.69;100.00;52537.47;5093838;28;20205;-79
2023/04/29 01:45:58;;;;;;;12.30;6.10;;;;;;;-145.69;100.00;52515.69;5093712;28;20298;-79
2023/04/29 01:48:24;;;;;;;16.60;7.83;;;;;;;-145.69;100.00;52547.38;5092862;28;20222;-78
2023/04/29 01:50:51;;;;;;;17.30;6.90;;;;;;;-145.69;100.00;52515.69;5093156;28;20554;-80
2023/04/29 01:53:17;;;;;;;17.67;6.67;;;;;;;-145.69;100.00;52507.75;5093314;28;20194;-79
2023/04/29 01:55:44;;;;;;;13.93;6.63;;;;;;;-145.69;100.00;52519.63;5093498;28;20599;-80
2023/04/29 01:58:12;;;;;;;21.13;8.80;;;;;;;-145.69;100.00;52535.47;5093290;28;20267;-79
2023/04/29 02:00:41;;;;;;;20.23;8.40;;;;;;;-145.69;100.00;52543.41;5093510;28;20196;-79
2023/04/29 02:03:07;;;;;;;20.17;7.40;;;;;;;-145.69;100.00;52567.16;5093122;28;20205;-80
2023/04/29 02:05:39;;;;;;;21.43;8.80;;;;;;;-145.69;100.00;52531.53;5093602;28;20538;-79
2023/04/29 02:08:06;;;;;;;16.37;7.33;;;;;;;-145.69;100.00;52575.09;5092851;28;20580;-79
2023/04/29 02:10:34;;;;;;;17.13;7.60;;;;;;;-145.69;100.00;52527.56;5092611;28;20568;-79
2023/04/29 02:13:01;;;;;;;23.53;9.07;;;;;;;-145.69;100.00;52507.75;5093067;28;20560;-79
2023/04/29 02:15:30;;;;;;;19.87;8.07;;;;;;;-145.69;100.00;52521.63;5093231;28;20722;-79
2023/04/29 02:17:57;;;;;;;17.70;7.63;;;;;;;-145.69;100.00;52521.63;5081882;28;20210;-80
2023/04/29 02:20:25;;;;;;;22.80;9.33;;;;;;;-145.69;100.00;52527.56;5073165;28;20199;-79
2023/04/29 02:22:52;;;;;;;18.27;8.17;;;;;;;-145.69;100.00;52543.41;5092970;28;20194;-80
2023/04/29 02:25:18;;;;;;;24.33;10.53;;;;;;;-145.69;100.00;52523.59;5092537;28;20202;-79
2023/04/29 02:27:45;;;;;;;20.07;9.00;;;;;;;-145.69;100.00;52523.59;5092995;28;20591;-80
2023/04/29 02:30:17;;;;;;;17.50;7.73;;;;;;;-145.69;100.00;52535.47;5092687;28;20198;-80
2023/04/29 02:32:45;;;;;;;27.83;10.83;;;;;;;-145.69;100.00;52535.47;5093272;28;20205;-79
2023/04/29 02:35:12;;;;;;;29.60;12.40;;;;;;;-145.69;100.00;52553.31;5092807;28;20202;-79
2023/04/29 02:37:38;;;;;;;30.30;11.73;;;;;;;-145.69;100.00;52535.47;5092762;28;20206;-80
2023/04/29 02:40:06;;;;;;;31.53;11.40;;;;;;;-145.69;100.00;52521.63;5092761;28;20209;-80
2023/04/29 02:42:32;;;;;;;25.03;10.13;;;;;;;-145.69;100.00;52525.59;5092764;28;20198;-79
2023/04/29 02:44:59;;;;;;;29.87;11.87;;;;;;;-145.69;100.00;52507.75;5092815;28;20248;-79
2023/04/29 02:47:26;;;;;;;31.67;11.77;;;;;;;-145.69;100.00;52511.72;5092801;28;20198;-79
2023/04/29 02:49:54;;;;;;;28.73;11.20;;;;;;;-145.69;100.00;52545.38;5092759;28;20198;-79
2023/04/29 02:52:20;;;;;;;29.17;11.33;;;;;;;-145.69;100.00;52509.75;5092358;28;20202;-80
2023/04/29 02:54:47;;;;;;;33.93;11.97;;;;;;;-145.69;100.00;52531.53;5072627;28;20206;-80
2023/04/29 02:57:13;;;;;;;25.10;9.10;;;;;;;-145.69;100.00;52523.59;5072420;28;20198;-79
2023/04/29 02:59:40;;;;;;;21.63;10.10;;;;;;;-145.69;100.00;52535.47;5075255;28;20564;-78
2023/04/29 03:02:06;;;;;;;25.90;11.50;;;;;;;-145.69;100.00;52523.59;5092728;28;20198;-78
2023/04/29 03:04:33;;;;;;;31.33;11.37;;;;;;;-145.69;100.00;52527.56;5092624;28;20244;-79
2023/04/29 03:07:01;;;;;;;27.67;10.33;;;;;;;-145.69;100.00;52575.09;5092656;28;20198;-79
2023/04/29 03:09:28;;;;;;;22.07;8.87;;;;;;;-145.69;100.00;52537.47;5092195;28;20226;-78
2023/04/29 03:11:54;;;;;;;26.40;9.30;;;;;;;-145.69;100.00;52535.47;5092445;28;20206;-79
2023/04/29 03:14:21;;;;;;;27.83;10.67;;;;;;;-145.69;100.00;52525.59;5092196;28;20656;-78
2023/04/29 03:16:47;;;;;;;26.57;9.93;;;;;;;-145.69;100.00;52529.53;5092788;28;20567;-78
2023/04/29 03:19:14;;;;;;;23.97;9.20;;;;;;;-145.69;100.00;52547.38;5092619;28;20259;-78
2023/04/29 03:21:40;;;;;;;23.37;9.13;;;;;;;-145.69;100.00;52543.41;5092380;28;20206;-79
2023/04/29 03:24:08;;;;;;;24.33;10.03;;;;;;;-145.69;100.00;52547.38;5092212;28;20206;-78
2023/04/29 03:26:34;;;;;;;29.73;11.27;;;;;;;-145.69;100.00;52523.59;5091898;28;20198;-78
2023/04/29 03:29:01;;;;;;;30.53;10.87;;;;;;;-145.69;100.00;52543.41;5091708;28;20234;-79
2023/04/29 03:31:28;;;;;;;24.43;10.03;;;;;;;-145.69;100.00;52543.41;5092496;28;20202;-79
2023/04/29 03:33:54;;;;;;;17.67;8.93;;;;;;;-145.69;100.00;52527.56;5092216;28;20194;-79
2023/04/29 03:36:21;;;;;;;25.83;10.50;;;;;;;-145.69;100.00;52545.38;5093464;28;20255;-78
2023/04/29 03:38:47;;;;;;;32.20;11.20;;;;;;;-145.69;100.00;52535.47;5095857;28;20194;-78
2023/04/29 03:41:15;;;;;;;27.43;11.03;;;;;;;-145.69;100.00;52549.34;5096229;28;20243;-78
2023/04/29 03:43:43;;;;;;;40.30;13.37;;;;;;;-145.69;100.00;52537.47;5096189;28;20209;-78
2023/04/29 03:46:10;;;;;;;29.77;11.73;;;;;;;-145.69;100.00;52511.72;5095952;28;20202;-79
2023/04/29 03:48:36;;;;;;;26.80;10.23;;;;;;;-145.69;100.00;52527.56;5095874;28;20684;-79
2023/04/29 03:51:03;;;;;;;24.73;9.73;;;;;;;-145.69;100.00;52531.53;5095556;28;20198;-78
2023/04/29 03:53:30;;;;;;;21.27;8.77;;;;;;;-145.69;100.00;52543.41;5095448;28;20205;-78
2023/04/29 03:55:56;;;;;;;18.70;8.03;;;;;;;-145.69;100.00;52547.38;5095960;28;20198;-78
2023/04/29 03:58:24;;;;;;;27.63;9.73;;;;;;;-145.69;100.00;52533.50;5095661;28;20209;-78
2023/04/29 04:00:50;;;;;;;28.23;10.73;;;;;;;-145.69;100.00;52539.44;5095647;28;20209;-78
2023/04/29 04:03:17;;;;;;;30.73;10.93;;;;;;;-145.69;100.00;52535.47;5095584;28;20619;-78
2023/04/29 04:05:43;;;;;;;17.13;8.40;;;;;;;-145.69;100.00;52511.72;5095644;28;20201;-78
2023/04/29 04:08:10;;;;;;;19.73;9.30;;;;;;;-145.69;100.00;52547.38;5095109;28;20230;-79
2023/04/29 04:10:37;;;;;;;31.67;11.40;;;;;;;-145.69;100.00;52543.41;5082314;28;20262;-79
2023/04/29 04:13:03;;;;;;;25.20;9.70;;;;;;;-145.69;100.00;52575.09;5075419;28;20198;-78
2023/04/29 04:15:31;;;;;;;32.47;11.60;;;;;;;-145.69;100.00;52563.22;5075337;28;20206;-79
2023/04/29 04:17:57;;;;;;;31.97;11.67;;;;;;;-145.69;100.00;52557.28;5075322;28;20199;-79
2023/04/29 04:20:24;;;;;;;26.83;10.03;;;;;;;-145.69;100.00;52575.09;5075070;28;20202;-79
2023/04/29 04:22:50;;;;;;;22.47;9.87;;;;;;;-145.69;100.00;52547.38;5094384;28;20190;-79
2023/04/29 04:25:17;;;;;;;29.77;10.77;;;;;;;-145.69;100.00;52543.41;5095167;28;20210;-79
2023/04/29 04:27:43;;;;;;;23.50;10.13;;;;;;;-145.69;100.00;52555.28;5095101;28;20202;-79
2023/04/29 04:30:10;;;;;;;22.60;10.20;;;;;;;-145.69;100.00;52563.22;5095203;28;20198;-79
2023/04/29 04:32:39;;;;;;;24.90;10.70;;;;;;;-145.69;100.00;52563.22;5095124;28;20202;-78
2023/04/29 04:35:07;;;;;;;25.10;10.03;;;;;;;-145.69;100.00;52547.38;5094717;28;20219;-79
2023/04/29 04:37:33;;;;;;;27.67;11.27;;;;;;;-145.69;100.00;52527.56;5094623;28;20233;-78
2023/04/29 04:40:00;;;;;;;32.73;12.00;;;;;;;-145.69;100.00;52555.28;5095135;28;20247;-79
2023/04/29 04:42:26;;;;;;;24.23;9.77;;;;;;;-145.69;100.00;52547.38;5094768;28;20206;-79
2023/04/29 04:44:53;;;;;;;24.57;9.93;;;;;;;-145.69;100.00;52531.53;5094229;28;20205;-79
2023/04/29 04:47:20;;;;;;;19.23;8.90;;;;;;;-145.69;100.00;52559.25;5093252;28;20502;-78
2023/04/29 04:49:48;;;;;;;23.90;10.17;;;;;;;-145.69;100.00;52543.41;5092911;28;20573;-78
2023/04/29 04:52:15;;;;;;;24.50;9.50;;;;;;;-145.69;100.00;52586.97;5094826;28;20225;-78
2023/04/29 04:54:45;;;;;;;25.10;10.43;;;;;;;-145.69;100.00;52575.09;5094210;28;20194;-78
2023/04/29 04:57:11;;;;;;;23.00;9.33;;;;;;;-145.69;100.00;52539.44;5094730;28;20198;-79
2023/04/29 04:59:38;;;;;;;18.97;8.80;;;;;;;-145.69;100.00;52559.25;5094474;28;20206;-79
2023/04/29 05:02:04;;;;;;;26.53;9.90;;;;;;;-145.69;100.00;52561.22;5094210;28;20205;-79
2023/04/29 05:04:31;;;;;;;31.80;11.30;;;;;;;-145.69;100.00;52553.31;5093906;28;20253;-78
2023/04/29 05:06:59;;;;;;;26.40;10.87;;;;;;;-145.69;100.00;52583.00;5094280;28;20225;-79
2023/04/29 05:09:25;;;;;;;22.27;9.07;;;;;;;-145.69;100.00;52563.22;5094076;28;20242;-78
2023/04/29 05:11:52;;;;;;;20.23;8.90;;;;;;;-145.69;100.00;52555.28;5094270;28;20237;-79
2023/04/29 05:14:19;;;;;;;28.63;11.97;;;;;;;-145.69;100.00;52531.53;5093974;28;20203;-79
2023/04/29 05:16:45;;;;;;;30.73;12.30;;;;;;;-145.69;100.00;52547.38;5093784;28;20243;-78
2023/04/29 05:19:12;;;;;;;36.20;13.47;;;;;;;-145.69;100.00;52543.41;5094344;28;20205;-78
2023/04/29 05:21:38;;;;;;;30.40;12.27;;;;;;;-145.69;100.00;52537.47;5093374;28;20186;-78
2023/04/29 05:24:07;;;;;;;35.40;14.07;;;;;;;-145.69;100.00;52541.44;5094007;28;20284;-78
2023/04/29 05:26:33;;;;;;;36.00;12.80;;;;;;;-145.69;100.00;52563.22;5094110;28;20199;-78
2023/04/29 05:29:00;;;;;;;31.90;13.00;;;;;;;-145.69;100.00;52553.31;5093916;28;20226;-78
2023/04/29 05:31:27;;;;;;;40.97;13.90;;;;;;;-145.69;100.00;52535.47;5093564;28;20236;-78
2023/04/29 05:33:53;;;;;;;25.07;10.07;;;;;;;-145.69;100.00;52547.38;5093835;28;20722;-78
2023/04/29 05:36:20;;;;;;;30.00;13.20;;;;;;;-145.69;100.00;52521.63;5093744;28;20202;-78
2023/04/29 05:38:47;;;;;;;30.43;13.33;;;;;;;-145.69;100.00;52555.28;5093728;28;20652;-78
2023/04/29 05:41:15;;;;;;;21.95;11.27;;;;;;;-145.69;100.00;52525.59;5093823;28;20602;-78
2023/04/29 05:43:41;;;;;;;18.30;8.43;;;;;;;-145.69;100.00;52531.53;5093632;28;20402;-78
2023/04/29 05:46:07;;;;;;;20.13;8.73;;;;;;;-145.69;100.00;52537.47;5093307;28;20201;-78
2023/04/29 05:48:34;;;;;;;27.43;9.80;;;;;;;-145.69;100.00;52539.44;5093257;28;20218;-78
2023/04/29 05:51:01;;;;;;;24.97;10.77;;;;;;;-145.69;100.00;52535.47;5093355;28;20204;-78
2023/04/29 05:53:27;;;;;;;27.75;11.13;;;;;;;-145.69;100.00;52535.47;5093423;28;20225;-78
2023/04/29 05:55:54;;;;;;;25.25;10.50;;;;;;;-145.69;100.00;52513.69;5093523;28;20202;-78
2023/04/29 05:58:22;;;;;;;25.55;10.57;;;;;;;-145.69;100.00;52539.44;5093154;28;20198;-78
2023/04/29 06:00:49;;;;;;;23.55;10.77;;;;;;;-145.69;100.00;52535.47;5092691;28;20217;-78
2023/04/29 06:03:15;;;;;;;21.20;8.95;;;;;;;-145.69;100.00;52501.81;5093478;28;20249;-78
2023/04/29 06:05:42;;;;;;;22.10;9.80;;;;;;;-145.69;100.00;52507.75;5093227;28;20218;-78
2023/04/29 06:08:09;;;;;;;22.88;9.88;;;;;;;-145.69;100.00;52513.69;5093492;28;20557;-78
2023/04/29 06:10:36;;;;;;;27.10;10.48;;;;;;;-145.69;100.00;52545.38;5093160;28;20333;-78
2023/04/29 06:13:02;;;;;;;20.77;10.75;;;;;;;-145.69;100.00;52525.59;5077794;28;20202;-78
2023/04/29 06:15:30;;;;;;;22.48;9.68;;;;;;;-145.69;100.00;52499.84;5073257;28;20199;-79
2023/04/29 06:17:56;;;;;;;21.30;9.13;;;;;;;-145.69;100.00;52495.88;5091931;28;20194;-77
2023/04/29 06:20:23;;;;;;;12.87;8.20;;;;;;;-145.69;100.00;52503.81;5091452;28;20445;-78
2023/04/29 06:22:49;;;;;;;11.45;7.40;;;;;;;-145.69;100.00;52511.72;5093153;28;20198;-79
2023/04/29 06:25:16;;;;;;;11.82;7.50;;;;;;;-145.69;100.00;52541.44;5092701;28;20537;-79
2023/04/29 06:27:42;;;;;;;15.10;6.45;;;;;;;-145.69;100.00;52531.53;5092888;28;20201;-79
2023/04/29 06:30:10;;;;;;;7.63;5.63;;;;;;;-145.69;100.00;52491.91;5093046;28;20309;-79
2023/04/29 06:32:38;;;;;;;7.50;5.65;;;;;;;-145.69;100.00;52511.72;5092782;28;20194;-79
2023/04/29 06:35:05;;;;;;;8.05;4.70;;;;;;;-145.69;100.00;52484.00;5093065;28;20206;-79
2023/04/29 06:37:31;;;;;;;9.82;4.40;;;;;;;-145.69;100.00;52474.09;5092822;28;20580;-79
2023/04/29 06:39:58;;;;;;;6.38;3.95;;;;;;;-145.69;100.00;52515.69;5092933;28;20244;-79
2023/04/29 06:42:24;;;;;;;6.55;4.07;;;;;;;-145.69;100.00;52489.94;5092894;28;20201;-79
2023/04/29 06:44:51;;;;;;;5.47;4.03;;;;;;;-145.69;100.00;52519.63;5093081;28;20202;-79
2023/04/29 06:47:17;;;;;;;4.75;3.55;;;;;;;-145.69;100.00;52478.06;5092677;28;20591;-79
2023/04/29 06:49:46;;;;;;;5.05;3.92;;;;;;;-145.69;100.00;52513.69;5092413;28;20224;-79
2023/04/29 06:52:12;;;;;;;7.07;3.92;;;;;;;-145.69;100.00;52501.81;5092177;28;20208;-78
2023/04/29 06:54:39;;;;;;;8.52;4.38;;;;;;;-145.69;100.00;52557.28;5092585;28;20206;-79
2023/04/29 06:57:05;;;;;;;7.70;4.15;;;;;;;-145.69;100.00;52521.63;5092082;28;20657;-79
2023/04/29 06:59:32;;;;;;;5.57;4.10;;;;;;;-145.69;100.00;52515.69;5092828;28;20213;-79
2023/04/29 07:01:58;;;;;;;5.55;4.10;;;;;;;-145.69;100.00;52507.75;5092828;28;20221;-79
2023/04/29 07:04:25;;;;;;;6.38;3.60;;;;;;;-145.69;100.00;52499.84;5092217;28;20229;-80
2023/04/29 07:06:53;;;;;;;10.48;4.70;;;;;;;-145.69;100.00;52503.81;5092474;28;20248;-79
2023/04/29 07:09:19;;;;;;;8.48;4.13;;;;;;;-145.69;100.00;52491.91;5092253;28;20229;-78
2023/04/29 07:11:46;;;;;;;5.75;4.35;;;;;;;-145.69;100.00;52515.69;5094250;28;20201;-79
2023/04/29 07:14:12;;;;;;;6.72;4.13;;;;;;;-145.69;100.00;52495.88;5096416;28;20209;-78
2023/04/29 07:16:39;;;;;;;6.95;3.50;;;;;;;-145.69;100.00;52535.47;5096656;28;20201;-80
2023/04/29 07:19:05;;;;;;;7.15;3.05;;;;;;;-145.69;100.00;52501.81;5096390;28;20676;-80
2023/04/29 07:21:32;;;;;;;4.75;3.08;;;;;;;-145.69;100.00;52523.59;5096404;28;20225;-79
2023/04/29 07:24:01;;;;;;;4.88;2.72;;;;;;;-145.69;100.00;52509.75;5096339;28;20194;-78
2023/04/29 07:26:27;;;;;;;4.50;2.70;;;;;;;-145.69;100.00;52529.53;5096165;28;20201;-78
2023/04/29 07:28:54;;;;;;;5.32;2.05;;;;;;;-145.69;100.00;52507.75;5096142;28;20193;-79
2023/04/29 07:31:21;;;;;;;4.85;2.33;;;;;;;-145.69;100.00;52491.91;5096286;28;20603;-78
2023/04/29 07:33:47;;;;;;;6.43;2.00;;;;;;;-145.69;100.00;52480.03;5095977;28;20251;-80
2023/04/29 07:36:14;;;;;;;3.05;1.75;;;;;;;-145.69;100.00;52484.00;5096068;28;20205;-80
2023/04/29 07:38:40;;;;;;;3.13;1.92;;;;;;;-145.69;100.00;52480.03;5094806;28;20645;-80
2023/04/29 07:41:08;;;;;;;2.00;1.63;;;;;;;-145.69;100.00;52495.88;5095602;28;20209;-80
2023/04/29 07:43:35;;;;;;;3.42;1.95;;;;;;;-145.69;100.00;52507.75;5093624;28;20206;-80
2023/04/29 07:46:01;;;;;;;3.08;1.70;;;;;;;-145.69;100.00;52515.69;5094318;28;20457;-79
2023/04/29 07:48:28;;;;;;;1.70;1.60;;;;;;;-145.69;100.00;52478.06;5095660;28;20198;-79
2023/04/29 07:50:54;;;;;;;1.77;1.45;;;;;;;-145.69;100.00;52456.28;5095615;28;20221;-80
2023/04/29 07:53:21;;;;;;;1.80;1.25;;;;;;;-145.69;100.00;52470.13;5095745;28;20252;-78
2023/04/29 07:55:48;;;;;;;3.40;1.83;;;;;;;-145.69;100.00;52503.81;5095660;28;20202;-78
2023/04/29 07:58:15;;;;;;;2.67;1.52;;;;;;;-145.69;100.00;52507.75;5095587;28;20194;-81
2023/04/29 08:00:42;;;;;;;1.58;1.48;;;;;;;-145.69;100.00;52491.91;5095719;28;20205;-80
2023/04/29 08:03:09;;;;;;;1.25;1.10;;;;;;;-145.69;100.00;52489.94;5095386;28;20200;-79
2023/04/29 08:05:35;;;;;;;1.75;1.00;;;;;;;-145.69;100.00;52446.38;5094822;28;20240;-80
2023/04/29 08:08:02;;;;;;;1.83;1.25;;;;;;;-145.69;100.00;52464.19;5095750;28;20198;-80
2023/04/29 08:10:28;;;;;;;2.05;1.20;;;;;;;-145.69;100.00;52452.31;5095261;28;20224;-80
2023/04/29 08:12:55;;;;;;;7.13;1.20;;;;;;;-145.69;100.00;52458.25;5084241;28;20658;-83
2023/04/29 08:15:23;;;;;;;2.05;1.40;;;;;;;-145.69;100.00;52491.91;5076711;28;20205;-83
2023/04/29 08:17:49;;;;;;;1.58;1.30;;;;;;;-145.69;100.00;52493.91;5075627;28;20209;-80
2023/04/29 08:20:16;;;;;;;2.70;1.10;;;;;;;-145.69;100.00;52466.16;5074654;28;20645;-81
2023/04/29 08:22:42;;;;;;;1.48;1.38;;;;;;;-145.69;100.00;52491.91;5074780;28;20207;-81
2023/04/29 08:25:10;;;;;;;1.73;1.23;;;;;;;-145.69;100.00;52458.25;5091835;28;20488;-82
2023/04/29 08:27:36;;;;;;;1.63;1.15;;;;;;;-145.69;100.00;52444.38;5095619;28;20194;-80
2023/04/29 08:30:03;;;;;;;2.17;1.00;;;;;;;-145.69;100.00;52464.19;5085462;28;20652;-81
2023/04/29 08:32:33;;;;;;;1.15;1.05;;;;;;;-145.69;100.00;52468.16;5075460;28;20199;-82
2023/04/29 08:34:59;;;;;;;1.23;0.95;;;;;;;-145.69;100.00;52428.53;5081132;28;20668;-81
2023/04/29 08:37:27;;;;;;;3.53;1.23;;;;;;;-145.69;100.00;52456.28;5094655;28;20194;-80
2023/04/29 08:39:53;;;;;;;1.65;1.00;;;;;;;-145.69;100.00;52456.28;5089695;28;20217;-79
2023/04/29 08:42:32;;;;;;;1.25;1.00;;;;;;;-145.69;100.00;52456.28;5089211;28;20240;-79
2023/04/29 08:45:00;;;;;;;1.92;1.30;;;;;;;-145.69;100.00;52456.28;5084634;28;20205;-79
2023/04/29 08:47:27;;;;;;;1.88;1.27;;;;;;;-145.69;100.00;52428.53;5087455;28;20210;-80
2023/04/29 08:49:56;;;;;;;1.55;1.30;;;;;;;-145.69;100.00;52444.38;5083599;28;20791;-79
2023/04/29 08:52:22;;;;;;;4.43;1.50;;;;;;;-145.69;100.00;52482.00;5094470;28;20661;-80
2023/04/29 08:54:49;;;;;;;1.15;0.90;;;;;;;-145.69;100.00;52448.34;5094726;28;20205;-80
2023/04/29 08:57:15;;;;;;;1.75;1.10;;;;;;;-145.69;100.00;52432.50;5094178;28;20739;-80
2023/04/29 08:59:42;;;;;;;3.45;1.33;;;;;;;-145.69;100.00;52458.25;5094327;28;20298;-81
2023/04/29 09:02:15;;;;;;;5.13;1.40;;;;;;;-145.69;100.00;52468.16;5094705;28;20198;-81
2023/04/29 09:04:48;;;;;;;1.33;1.23;;;;;;;-145.69;100.00;52464.19;5094085;28;20283;-80
2023/04/29 09:07:17;;;;;;;6.40;1.20;;;;;;;-145.69;100.00;52460.22;5094018;28;20652;-80
2023/04/29 09:09:43;;;;;;;1.63;1.30;;;;;;;-145.69;100.00;52458.25;5094250;28;20222;-80
2023/04/29 09:12:10;;;;;;;1.90;1.40;;;;;;;-145.69;100.00;52436.47;5093890;28;20194;-80
2023/04/29 09:14:37;;;;;;;1.95;1.50;;;;;;;-145.69;100.00;52452.31;5094458;28;20204;-81
2023/04/29 09:17:03;;;;;;;1.55;1.33;;;;;;;-145.69;100.00;52468.16;5094407;28;20194;-81
2023/04/29 09:19:31;;;;;;;4.20;1.30;;;;;;;-145.69;100.00;52470.13;5094013;28;20205;-81
2023/04/29 09:21:58;;;;;;;2.45;1.20;;;;;;;-145.69;100.00;52487.97;5094296;28;20641;-82
2023/04/29 09:24:27;;;;;;;2.40;1.50;;;;;;;-145.69;100.00;52489.94;5094221;28;20202;-78
2023/04/29 09:26:54;;;;;;;2.17;1.33;;;;;;;-145.69;100.00;52448.34;5093541;28;20212;-79
2023/04/29 09:29:21;;;;;;;3.42;1.13;;;;;;;-145.69;100.00;52448.34;5093885;28;20233;-79
2023/04/29 09:31:52;;;;;;;3.17;1.30;;;;;;;-145.69;100.00;52462.22;5093832;28;20554;-79
2023/04/29 09:34:31;;;;;;;1.98;1.30;;;;;;;-145.69;100.00;52476.06;5093264;28;20289;-79
2023/04/29 09:36:58;;;;;;;5.22;1.50;;;;;;;-145.69;100.00;52470.13;5093662;28;20267;-78
2023/04/29 09:39:25;;;;;;;1.80;1.30;;;;;;;-145.69;100.00;52460.22;5093655;28;20202;-79
2023/04/29 09:42:01;;;;;;;1.10;1.00;;;;;;;-145.69;100.00;52454.28;5093616;28;20213;-78
2023/04/29 09:44:30;;;;;;;1.55;1.45;;;;;;;-145.69;100.00;52456.28;5093789;28;20193;-78
2023/04/29 09:46:57;;;;;;;2.13;1.08;;;;;;;-145.69;100.00;52448.34;5093619;28;20202;-78
2023/04/29 09:49:26;;;;;;;2.85;1.33;;;;;;;-145.69;100.00;52456.28;5093553;28;20293;-78
2023/04/29 09:51:54;;;;;;;7.50;1.40;;;;;;;-145.69;100.00;52450.31;5093477;28;20679;-84
2023/04/29 09:54:22;;;;;;;1.10;1.00;;;;;;;-145.69;100.00;52452.31;5094022;28;20202;-84
2023/04/29 09:56:52;;;;;;;1.25;1.05;;;;;;;-145.69;100.00;52432.50;5093411;28;20247;-83
2023/04/29 09:59:18;;;;;;;2.72;1.00;;;;;;;-145.69;100.00;52428.53;5093274;28;20656;-83
2023/04/29 10:01:48;;;;;;;1.27;1.10;;;;;;;-145.69;100.00;52458.25;5093498;28;20202;-82
2023/04/29 10:04:16;;;;;;;1.98;1.20;;;;;;;-145.69;100.00;52408.75;5093117;28;20265;-82
2023/04/29 10:06:44;;;;;;;1.10;1.00;;;;;;;-145.69;100.00;52410.72;5093602;28;20203;-83
2023/04/29 10:09:14;;;;;;;1.55;1.27;;;;;;;-145.69;100.00;52428.53;5088050;28;20191;-82
2023/04/29 10:11:41;;;;;;;1.77;1.10;;;;;;;-145.69;100.00;52388.94;5087156;28;20763;-81
2023/04/29 10:14:12;;;;;;;2.80;1.42;;;;;;;-145.69;100.00;52402.78;5093336;28;20216;-81
2023/04/29 10:16:46;;;;;;;3.80;1.35;;;;;;;-145.69;100.00;52446.38;5093333;28;20202;-76
2023/04/29 10:19:18;;;;;;;1.90;1.40;;;;;;;-145.69;100.00;52424.59;5093107;28;20205;-80
2023/04/29 10:21:45;;;;;;;1.70;1.25;;;;;;;-145.69;100.00;52432.50;5093298;28;20225;-77
2023/04/29 10:24:15;;;;;;;2.50;1.23;;;;;;;-145.69;100.00;52428.53;5092921;28;20209;-78
2023/04/29 10:26:43;;;;;;;4.28;1.30;;;;;;;-145.69;100.00;52416.66;5092804;28;20255;-80
2023/04/29 10:29:13;;;;;;;3.10;1.08;;;;;;;-145.69;100.00;52412.69;5093053;28;20205;-79
2023/04/29 10:31:41;;;;;;;1.13;1.02;;;;;;;-145.69;100.00;52416.66;5092883;28;20264;-79
2023/04/29 10:34:07;;;;;;;4.47;1.25;;;;;;;-145.69;98.03;52377.06;5093224;28;20198;-79
2023/04/29 10:36:36;;;;;;;3.03;0.90;;;;;;;-145.69;97.77;52404.78;5092999;28;20206;-79
2023/04/29 10:39:05;;;;;;;2.78;0.90;;;;;;;-145.69;93.60;52416.66;5093045;28;20206;-79
2023/04/29 10:41:37;;;;;;;3.67;1.08;;;;;;;-145.69;96.15;52406.75;5092695;28;20232;-78
2023/04/29 10:44:04;;;;;;;2.35;1.10;;;;;;;-145.69;100.00;52410.72;5092759;28;20245;-78
2023/04/29 10:46:32;;;;;;;1.42;1.20;;;;;;;-145.69;96.04;52430.53;5094518;28;20603;-78
2023/04/29 10:49:01;;;;;;;1.77;0.90;;;;;;;-145.69;91.95;52396.84;5096870;28;20254;-78
2023/04/29 10:51:32;;;;;;;1.90;1.10;;;;;;;-145.69;92.43;52430.53;5096075;28;20633;-79
2023/04/29 10:54:00;;;;;;;1.17;0.85;;;;;;;-145.69;95.80;52430.53;5096991;28;20194;-78
2023/04/29 10:56:45;;;;;;;1.10;0.95;;;;;;;-145.69;100.00;52381.00;5096376;28;20709;-79
2023/04/29 10:59:13;;;;;;;1.10;0.80;;;;;;;-145.69;99.87;52392.91;5096754;28;20732;-79
2023/04/29 11:01:49;;;;;;;1.00;0.90;;;;;;;-145.69;100.00;52390.91;5096928;28;20209;-79
2023/04/29 11:04:17;;;;;;;0.80;0.80;;;;;;;-145.69;90.24;52384.97;5094913;28;20221;-79
2023/04/29 11:06:51;;;;;;;2.42;1.00;;;;;;;-145.69;93.96;52377.06;5096738;28;20626;-78